Terminal Aerodrome Forecast
Issued by NWS

Home | Current Version | Previous Version | Text Only | Print | Product List | Glossary On
Versions: 1 2 3 4 5 6 7 8 9 10 11 12 13 14 15 16 17 18 19 20 21 22 23 24
000
FTUS42 KTBW 311737
TAFPGD
TAF
KPGD 311737Z 3118/0118 20007KT P6SM VCTS SCT030CB BKN120 OVC250
      TEMPO 3118/3122 VRB15G25KT 3SM TSRA BKN020CB
     FM010300 15004KT P6SM SCT035 BKN120 OVC250
     FM011500 16007KT P6SM VCTS SCT025CB SCT120 BKN250=

USA.gov is the U.S. government's official web portal to all federal, state and local government web resources and services.